sensor_id;sensor_type;location;lat;lon;timestamp;P1;durP1;ratioP1;P2;durP2;ratioP2
65045;SDS011;54657;52.022;5.534;2023-01-19T00:02:20;7.82;;;5.93;;
65045;SDS011;54657;52.022;5.534;2023-01-19T00:04:45;14.82;;;6.68;;
65045;SDS011;54657;52.022;5.534;2023-01-19T00:07:11;7.97;;;6.25;;
65045;SDS011;54657;52.022;5.534;2023-01-19T00:09:37;9.93;;;5.88;;
65045;SDS011;54657;52.022;5.534;2023-01-19T00:12:03;10.35;;;6.10;;
65045;SDS011;54657;52.022;5.534;2023-01-19T00:14:29;10.35;;;6.15;;
65045;SDS011;54657;52.022;5.534;2023-01-19T00:16:54;11.00;;;5.72;;
65045;SDS011;54657;52.022;5.534;2023-01-19T00:19:20;7.05;;;5.30;;
65045;SDS011;54657;52.022;5.534;2023-01-19T00:21:46;11.60;;;6.53;;
65045;SDS011;54657;52.022;5.534;2023-01-19T00:24:11;9.35;;;6.03;;
65045;SDS011;54657;52.022;5.534;2023-01-19T00:26:38;9.23;;;5.55;;
65045;SDS011;54657;52.022;5.534;2023-01-19T00:29:04;11.27;;;6.38;;
65045;SDS011;54657;52.022;5.534;2023-01-19T00:31:31;8.80;;;5.57;;
65045;SDS011;54657;52.022;5.534;2023-01-19T00:34:00;10.07;;;6.35;;
65045;SDS011;54657;52.022;5.534;2023-01-19T00:36:26;7.22;;;5.40;;
65045;SDS011;54657;52.022;5.534;2023-01-19T00:38:52;8.77;;;5.32;;
65045;SDS011;54657;52.022;5.534;2023-01-19T00:41:17;11.00;;;5.97;;
65045;SDS011;54657;52.022;5.534;2023-01-19T00:44:03;11.98;;;6.88;;
65045;SDS011;54657;52.022;5.534;2023-01-19T00:46:29;9.77;;;5.35;;
65045;SDS011;54657;52.022;5.534;2023-01-19T00:48:55;8.60;;;6.13;;
65045;SDS011;54657;52.022;5.534;2023-01-19T00:51:20;8.57;;;5.85;;
65045;SDS011;54657;52.022;5.534;2023-01-19T00:53:46;10.18;;;6.25;;
65045;SDS011;54657;52.022;5.534;2023-01-19T00:56:11;11.02;;;5.88;;
65045;SDS011;54657;52.022;5.534;2023-01-19T00:58:37;10.10;;;6.20;;
65045;SDS011;54657;52.022;5.534;2023-01-19T01:01:02;11.07;;;5.50;;
65045;SDS011;54657;52.022;5.534;2023-01-19T01:03:29;6.50;;;4.95;;
65045;SDS011;54657;52.022;5.534;2023-01-19T01:05:56;7.45;;;4.88;;
65045;SDS011;54657;52.022;5.534;2023-01-19T01:08:22;6.18;;;4.65;;
65045;SDS011;54657;52.022;5.534;2023-01-19T01:10:47;6.47;;;4.93;;
65045;SDS011;54657;52.022;5.534;2023-01-19T01:13:13;10.52;;;5.15;;
65045;SDS011;54657;52.022;5.534;2023-01-19T01:15:39;8.98;;;4.70;;
65045;SDS011;54657;52.022;5.534;2023-01-19T01:18:05;7.60;;;4.88;;
65045;SDS011;54657;52.022;5.534;2023-01-19T01:20:31;7.72;;;4.80;;
65045;SDS011;54657;52.022;5.534;2023-01-19T01:22:58;7.57;;;4.35;;
65045;SDS011;54657;52.022;5.534;2023-01-19T01:25:24;5.60;;;4.35;;
65045;SDS011;54657;52.022;5.534;2023-01-19T01:27:53;6.13;;;3.95;;
65045;SDS011;54657;52.022;5.534;2023-01-19T01:30:19;5.55;;;4.25;;
65045;SDS011;54657;52.022;5.534;2023-01-19T01:32:45;7.45;;;4.22;;
65045;SDS011;54657;52.022;5.534;2023-01-19T01:35:10;6.07;;;4.18;;
65045;SDS011;54657;52.022;5.534;2023-01-19T01:37:37;3.85;;;3.00;;
65045;SDS011;54657;52.022;5.534;2023-01-19T01:40:04;7.07;;;4.07;;
65045;SDS011;54657;52.022;5.534;2023-01-19T01:42:31;5.53;;;4.00;;
65045;SDS011;54657;52.022;5.534;2023-01-19T01:44:58;7.15;;;3.80;;
65045;SDS011;54657;52.022;5.534;2023-01-19T01:47:32;7.05;;;4.85;;
65045;SDS011;54657;52.022;5.534;2023-01-19T01:50:13;6.13;;;3.83;;
65045;SDS011;54657;52.022;5.534;2023-01-19T01:52:46;5.25;;;3.25;;
65045;SDS011;54657;52.022;5.534;2023-01-19T01:55:15;5.20;;;4.25;;
65045;SDS011;54657;52.022;5.534;2023-01-19T01:57:45;6.68;;;4.35;;
65045;SDS011;54657;52.022;5.534;2023-01-19T02:00:15;4.00;;;3.55;;
65045;SDS011;54657;52.022;5.534;2023-01-19T02:02:41;4.88;;;3.45;;
65045;SDS011;54657;52.022;5.534;2023-01-19T02:08:12;4.75;;;3.88;;
65045;SDS011;54657;52.022;5.534;2023-01-19T02:10:57;5.82;;;3.10;;
65045;SDS011;54657;52.022;5.534;2023-01-19T02:13:43;4.10;;;3.53;;
65045;SDS011;54657;52.022;5.534;2023-01-19T02:16:11;5.95;;;3.72;;
65045;SDS011;54657;52.022;5.534;2023-01-19T02:18:38;4.07;;;3.58;;
65045;SDS011;54657;52.022;5.534;2023-01-19T02:21:26;7.25;;;3.40;;
65045;SDS011;54657;52.022;5.534;2023-01-19T02:24:00;5.75;;;3.20;;
65045;SDS011;54657;52.022;5.534;2023-01-19T02:26:28;3.83;;;3.47;;
65045;SDS011;54657;52.022;5.534;2023-01-19T02:29:02;3.40;;;3.00;;
65045;SDS011;54657;52.022;5.534;2023-01-19T02:31:30;5.85;;;3.22;;
65045;SDS011;54657;52.022;5.534;2023-01-19T02:33:58;5.10;;;3.15;;
65045;SDS011;54657;52.022;5.534;2023-01-19T02:36:26;3.92;;;3.03;;
65045;SDS011;54657;52.022;5.534;2023-01-19T02:38:56;2.85;;;2.65;;
65045;SDS011;54657;52.022;5.534;2023-01-19T02:41:25;3.47;;;2.90;;
65045;SDS011;54657;52.022;5.534;2023-01-19T02:43:54;3.15;;;2.33;;
65045;SDS011;54657;52.022;5.534;2023-01-19T02:46:21;3.30;;;2.40;;
65045;SDS011;54657;52.022;5.534;2023-01-19T02:48:47;2.92;;;2.00;;
65045;SDS011;54657;52.022;5.534;2023-01-19T02:51:13;2.35;;;1.20;;
65045;SDS011;54657;52.022;5.534;2023-01-19T03:04:46;0.40;;;0.30;;
65045;SDS011;54657;52.022;5.534;2023-01-19T03:10:25;2.22;;;0.30;;
65045;SDS011;54657;52.022;5.534;2023-01-19T03:13:05;1.75;;;0.68;;
65045;SDS011;54657;52.022;5.534;2023-01-19T03:16:22;1.95;;;0.63;;
65045;SDS011;54657;52.022;5.534;2023-01-19T03:18:27;1.67;;;0.40;;
65045;SDS011;54657;52.022;5.534;2023-01-19T03:20:58;1.45;;;0.30;;
65045;SDS011;54657;52.022;5.534;2023-01-19T03:23:29;3.15;;;0.60;;
65045;SDS011;54657;52.022;5.534;2023-01-19T03:25:56;0.60;;;0.20;;
65045;SDS011;54657;52.022;5.534;2023-01-19T03:28:24;2.15;;;0.30;;
65045;SDS011;54657;52.022;5.534;2023-01-19T03:30:55;1.90;;;0.30;;
65045;SDS011;54657;52.022;5.534;2023-01-19T03:33:37;1.38;;;0.30;;
65045;SDS011;54657;52.022;5.534;2023-01-19T03:36:07;1.40;;;0.50;;
65045;SDS011;54657;52.022;5.534;2023-01-19T03:38:38;0.40;;;0.17;;
65045;SDS011;54657;52.022;5.534;2023-01-19T03:41:10;0.30;;;0.10;;
65045;SDS011;54657;52.022;5.534;2023-01-19T03:43:40;1.38;;;0.50;;
65045;SDS011;54657;52.022;5.534;2023-01-19T03:46:06;1.15;;;0.40;;
65045;SDS011;54657;52.022;5.534;2023-01-19T03:48:34;0.30;;;0.20;;
65045;SDS011;54657;52.022;5.534;2023-01-19T03:51:04;1.00;;;0.22;;
65045;SDS011;54657;52.022;5.534;2023-01-19T03:53:32;0.93;;;0.20;;
65045;SDS011;54657;52.022;5.534;2023-01-19T03:55:57;0.52;;;0.10;;
65045;SDS011;54657;52.022;5.534;2023-01-19T03:58:23;1.80;;;0.40;;
65045;SDS011;54657;52.022;5.534;2023-01-19T04:00:48;0.98;;;0.20;;
65045;SDS011;54657;52.022;5.534;2023-01-19T04:03:15;1.45;;;0.40;;
65045;SDS011;54657;52.022;5.534;2023-01-19T04:05:42;2.03;;;0.50;;
65045;SDS011;54657;52.022;5.534;2023-01-19T04:08:08;1.50;;;0.20;;
65045;SDS011;54657;52.022;5.534;2023-01-19T04:10:34;0.20;;;0.20;;
65045;SDS011;54657;52.022;5.534;2023-01-19T04:13:00;2.05;;;0.28;;
65045;SDS011;54657;52.022;5.534;2023-01-19T04:15:26;2.63;;;0.55;;
65045;SDS011;54657;52.022;5.534;2023-01-19T04:17:52;1.00;;;0.13;;
65045;SDS011;54657;52.022;5.534;2023-01-19T04:20:18;0.82;;;0.30;;
65045;SDS011;54657;52.022;5.534;2023-01-19T04:22:45;0.13;;;0.10;;
65045;SDS011;54657;52.022;5.534;2023-01-19T04:25:11;1.35;;;0.40;;
65045;SDS011;54657;52.022;5.534;2023-01-19T04:27:37;0.38;;;0.10;;
65045;SDS011;54657;52.022;5.534;2023-01-19T04:30:02;1.77;;;0.30;;
65045;SDS011;54657;52.022;5.534;2023-01-19T04:32:29;1.55;;;0.30;;
65045;SDS011;54657;52.022;5.534;2023-01-19T04:34:54;1.55;;;0.40;;
65045;SDS011;54657;52.022;5.534;2023-01-19T04:37:20;0.90;;;0.32;;
65045;SDS011;54657;52.022;5.534;2023-01-19T04:39:46;0.55;;;0.43;;
65045;SDS011;54657;52.022;5.534;2023-01-19T04:42:11;1.17;;;0.30;;
65045;SDS011;54657;52.022;5.534;2023-01-19T04:44:37;1.55;;;0.30;;
65045;SDS011;54657;52.022;5.534;2023-01-19T04:47:03;0.80;;;0.30;;
65045;SDS011;54657;52.022;5.534;2023-01-19T04:49:28;0.60;;;0.30;;
65045;SDS011;54657;52.022;5.534;2023-01-19T04:51:54;0.80;;;0.43;;
65045;SDS011;54657;52.022;5.534;2023-01-19T04:54:20;1.77;;;0.82;;
65045;SDS011;54657;52.022;5.534;2023-01-19T04:56:46;2.72;;;0.60;;
65045;SDS011;54657;52.022;5.534;2023-01-19T04:59:12;0.40;;;0.35;;
65045;SDS011;54657;52.022;5.534;2023-01-19T05:01:37;0.73;;;0.60;;
65045;SDS011;54657;52.022;5.534;2023-01-19T05:04:03;1.80;;;0.60;;
65045;SDS011;54657;52.022;5.534;2023-01-19T05:06:31;1.33;;;1.05;;
65045;SDS011;54657;52.022;5.534;2023-01-19T05:08:57;2.40;;;0.55;;
65045;SDS011;54657;52.022;5.534;2023-01-19T05:11:23;1.63;;;0.50;;
65045;SDS011;54657;52.022;5.534;2023-01-19T05:13:48;3.67;;;0.52;;
65045;SDS011;54657;52.022;5.534;2023-01-19T05:16:14;1.23;;;0.40;;
65045;SDS011;54657;52.022;5.534;2023-01-19T05:18:39;2.00;;;0.50;;
65045;SDS011;54657;52.022;5.534;2023-01-19T05:21:05;1.58;;;0.38;;
65045;SDS011;54657;52.022;5.534;2023-01-19T05:23:32;1.58;;;0.30;;
65045;SDS011;54657;52.022;5.534;2023-01-19T05:25:58;1.52;;;0.50;;
65045;SDS011;54657;52.022;5.534;2023-01-19T05:28:26;6.15;;;0.50;;
65045;SDS011;54657;52.022;5.534;2023-01-19T05:30:52;1.85;;;0.35;;
65045;SDS011;54657;52.022;5.534;2023-01-19T05:33:18;3.75;;;0.40;;
65045;SDS011;54657;52.022;5.534;2023-01-19T05:35:45;6.28;;;0.63;;
65045;SDS011;54657;52.022;5.534;2023-01-19T05:38:13;1.90;;;0.35;;
65045;SDS011;54657;52.022;5.534;2023-01-19T05:40:38;2.05;;;0.52;;
65045;SDS011;54657;52.022;5.534;2023-01-19T05:43:04;4.82;;;0.50;;
65045;SDS011;54657;52.022;5.534;2023-01-19T05:45:29;5.78;;;0.55;;
65045;SDS011;54657;52.022;5.534;2023-01-19T05:47:55;3.30;;;0.63;;
65045;SDS011;54657;52.022;5.534;2023-01-19T05:50:21;0.40;;;0.30;;
65045;SDS011;54657;52.022;5.534;2023-01-19T05:52:46;1.00;;;0.45;;
65045;SDS011;54657;52.022;5.534;2023-01-19T05:55:12;2.88;;;0.70;;
65045;SDS011;54657;52.022;5.534;2023-01-19T05:57:38;2.88;;;0.55;;
65045;SDS011;54657;52.022;5.534;2023-01-19T06:00:04;4.45;;;0.90;;
65045;SDS011;54657;52.022;5.534;2023-01-19T06:02:30;2.92;;;0.98;;
65045;SDS011;54657;52.022;5.534;2023-01-19T06:04:56;3.75;;;1.10;;
65045;SDS011;54657;52.022;5.534;2023-01-19T06:07:22;2.65;;;0.43;;
65045;SDS011;54657;52.022;5.534;2023-01-19T06:09:48;1.52;;;0.60;;
65045;SDS011;54657;52.022;5.534;2023-01-19T06:12:13;7.95;;;1.05;;
65045;SDS011;54657;52.022;5.534;2023-01-19T06:14:39;8.10;;;0.90;;
65045;SDS011;54657;52.022;5.534;2023-01-19T06:17:05;3.83;;;0.80;;
65045;SDS011;54657;52.022;5.534;2023-01-19T06:19:31;2.15;;;0.80;;
65045;SDS011;54657;52.022;5.534;2023-01-19T06:21:57;2.83;;;1.00;;
65045;SDS011;54657;52.022;5.534;2023-01-19T06:24:23;6.43;;;0.90;;
65045;SDS011;54657;52.022;5.534;2023-01-19T06:26:49;5.78;;;0.55;;
65045;SDS011;54657;52.022;5.534;2023-01-19T06:29:15;3.60;;;0.80;;
65045;SDS011;54657;52.022;5.534;2023-01-19T06:31:41;5.80;;;1.23;;
65045;SDS011;54657;52.022;5.534;2023-01-19T06:34:07;6.13;;;1.17;;
65045;SDS011;54657;52.022;5.534;2023-01-19T06:36:33;6.20;;;1.35;;
65045;SDS011;54657;52.022;5.534;2023-01-19T06:38:58;3.90;;;1.13;;
65045;SDS011;54657;52.022;5.534;2023-01-19T06:41:27;3.78;;;1.00;;
65045;SDS011;54657;52.022;5.534;2023-01-19T06:43:53;3.22;;;0.93;;
65045;SDS011;54657;52.022;5.534;2023-01-19T06:46:19;4.45;;;1.35;;
65045;SDS011;54657;52.022;5.534;2023-01-19T06:48:45;4.30;;;1.25;;
65045;SDS011;54657;52.022;5.534;2023-01-19T06:51:10;5.38;;;1.10;;
65045;SDS011;54657;52.022;5.534;2023-01-19T06:53:36;3.97;;;1.00;;
65045;SDS011;54657;52.022;5.534;2023-01-19T06:56:02;4.60;;;0.93;;
65045;SDS011;54657;52.022;5.534;2023-01-19T06:58:28;3.53;;;1.15;;
65045;SDS011;54657;52.022;5.534;2023-01-19T07:00:54;2.05;;;0.95;;
65045;SDS011;54657;52.022;5.534;2023-01-19T07:03:31;4.03;;;1.00;;
65045;SDS011;54657;52.022;5.534;2023-01-19T07:05:57;4.72;;;1.10;;
65045;SDS011;54657;52.022;5.534;2023-01-19T07:08:26;5.78;;;1.17;;
65045;SDS011;54657;52.022;5.534;2023-01-19T07:10:57;4.55;;;1.40;;
65045;SDS011;54657;52.022;5.534;2023-01-19T07:13:24;7.43;;;1.33;;
65045;SDS011;54657;52.022;5.534;2023-01-19T07:15:50;4.13;;;1.10;;
65045;SDS011;54657;52.022;5.534;2023-01-19T07:18:15;4.45;;;1.48;;
65045;SDS011;54657;52.022;5.534;2023-01-19T07:20:41;6.63;;;1.23;;
65045;SDS011;54657;52.022;5.534;2023-01-19T07:23:08;6.38;;;1.27;;
65045;SDS011;54657;52.022;5.534;2023-01-19T07:25:34;7.63;;;1.42;;
65045;SDS011;54657;52.022;5.534;2023-01-19T07:28:00;4.50;;;1.58;;
65045;SDS011;54657;52.022;5.534;2023-01-19T07:30:26;5.38;;;1.20;;
65045;SDS011;54657;52.022;5.534;2023-01-19T07:32:56;3.28;;;1.50;;
65045;SDS011;54657;52.022;5.534;2023-01-19T07:35:22;3.45;;;1.20;;
65045;SDS011;54657;52.022;5.534;2023-01-19T07:37:48;9.27;;;1.50;;
65045;SDS011;54657;52.022;5.534;2023-01-19T07:40:14;7.05;;;1.30;;
65045;SDS011;54657;52.022;5.534;2023-01-19T07:42:44;4.80;;;1.80;;
65045;SDS011;54657;52.022;5.534;2023-01-19T07:45:18;8.27;;;1.77;;
65045;SDS011;54657;52.022;5.534;2023-01-19T07:50:13;4.70;;;2.00;;
65045;SDS011;54657;52.022;5.534;2023-01-19T07:52:40;6.70;;;2.00;;
65045;SDS011;54657;52.022;5.534;2023-01-19T07:55:06;6.85;;;2.30;;
65045;SDS011;54657;52.022;5.534;2023-01-19T07:57:32;5.13;;;2.55;;
65045;SDS011;54657;52.022;5.534;2023-01-19T07:59:58;6.82;;;2.47;;
65045;SDS011;54657;52.022;5.534;2023-01-19T08:02:24;6.78;;;2.53;;
65045;SDS011;54657;52.022;5.534;2023-01-19T08:04:49;9.40;;;2.60;;
65045;SDS011;54657;52.022;5.534;2023-01-19T08:07:15;3.40;;;1.83;;
65045;SDS011;54657;52.022;5.534;2023-01-19T08:09:41;5.75;;;1.90;;
65045;SDS011;54657;52.022;5.534;2023-01-19T08:12:07;5.82;;;2.20;;
65045;SDS011;54657;52.022;5.534;2023-01-19T08:14:32;6.93;;;2.10;;
65045;SDS011;54657;52.022;5.534;2023-01-19T08:17:01;6.53;;;2.38;;
65045;SDS011;54657;52.022;5.534;2023-01-19T08:19:27;5.65;;;2.42;;
65045;SDS011;54657;52.022;5.534;2023-01-19T08:21:53;6.95;;;2.47;;
65045;SDS011;54657;52.022;5.534;2023-01-19T08:24:20;6.97;;;2.30;;
65045;SDS011;54657;52.022;5.534;2023-01-19T08:26:48;7.07;;;2.38;;
65045;SDS011;54657;52.022;5.534;2023-01-19T08:29:13;6.40;;;3.70;;
65045;SDS011;54657;52.022;5.534;2023-01-19T08:31:39;9.30;;;2.67;;
65045;SDS011;54657;52.022;5.534;2023-01-19T08:34:05;4.72;;;2.33;;
65045;SDS011;54657;52.022;5.534;2023-01-19T08:36:31;8.13;;;2.45;;
65045;SDS011;54657;52.022;5.534;2023-01-19T08:38:57;8.63;;;2.50;;
65045;SDS011;54657;52.022;5.534;2023-01-19T08:41:22;3.40;;;2.10;;
65045;SDS011;54657;52.022;5.534;2023-01-19T08:43:48;7.43;;;2.63;;
65045;SDS011;54657;52.022;5.534;2023-01-19T08:46:14;7.78;;;2.30;;
65045;SDS011;54657;52.022;5.534;2023-01-19T08:48:45;9.25;;;2.53;;
65045;SDS011;54657;52.022;5.534;2023-01-19T08:51:12;6.78;;;2.65;;
65045;SDS011;54657;52.022;5.534;2023-01-19T08:53:39;4.22;;;1.73;;
65045;SDS011;54657;52.022;5.534;2023-01-19T08:56:06;9.80;;;1.83;;
65045;SDS011;54657;52.022;5.534;2023-01-19T08:58:36;3.58;;;1.67;;
65045;SDS011;54657;52.022;5.534;2023-01-19T09:01:06;11.57;;;2.45;;
65045;SDS011;54657;52.022;5.534;2023-01-19T09:03:33;3.97;;;1.67;;
65045;SDS011;54657;52.022;5.534;2023-01-19T09:05:59;7.55;;;2.08;;
65045;SDS011;54657;52.022;5.534;2023-01-19T09:08:25;5.20;;;1.65;;
65045;SDS011;54657;52.022;5.534;2023-01-19T09:10:51;6.10;;;1.48;;
65045;SDS011;54657;52.022;5.534;2023-01-19T09:13:17;8.15;;;1.77;;
65045;SDS011;54657;52.022;5.534;2023-01-19T09:15:44;6.60;;;1.27;;
65045;SDS011;54657;52.022;5.534;2023-01-19T09:18:11;8.65;;;1.50;;
65045;SDS011;54657;52.022;5.534;2023-01-19T09:20:39;8.73;;;1.40;;
65045;SDS011;54657;52.022;5.534;2023-01-19T09:23:06;4.75;;;1.65;;
65045;SDS011;54657;52.022;5.534;2023-01-19T09:25:40;8.18;;;1.30;;
65045;SDS011;54657;52.022;5.534;2023-01-19T09:28:07;7.10;;;2.03;;
65045;SDS011;54657;52.022;5.534;2023-01-19T09:30:34;8.07;;;2.17;;
65045;SDS011;54657;52.022;5.534;2023-01-19T09:33:03;4.75;;;1.15;;
65045;SDS011;54657;52.022;5.534;2023-01-19T09:35:34;7.63;;;1.70;;
65045;SDS011;54657;52.022;5.534;2023-01-19T09:38:00;9.25;;;1.48;;
65045;SDS011;54657;52.022;5.534;2023-01-19T09:40:27;11.50;;;3.42;;
65045;SDS011;54657;52.022;5.534;2023-01-19T09:45:33;8.23;;;2.95;;
65045;SDS011;54657;52.022;5.534;2023-01-19T09:48:02;7.40;;;1.90;;
65045;SDS011;54657;52.022;5.534;2023-01-19T09:50:36;6.93;;;1.45;;
65045;SDS011;54657;52.022;5.534;2023-01-19T09:53:15;8.25;;;1.40;;
65045;SDS011;54657;52.022;5.534;2023-01-19T09:56:01;11.00;;;2.08;;
65045;SDS011;54657;52.022;5.534;2023-01-19T09:58:27;7.97;;;1.50;;
65045;SDS011;54657;52.022;5.534;2023-01-19T10:00:58;6.38;;;1.70;;
65045;SDS011;54657;52.022;5.534;2023-01-19T10:03:32;9.63;;;3.20;;
65045;SDS011;54657;52.022;5.534;2023-01-19T10:06:03;36.75;;;15.02;;
65045;SDS011;54657;52.022;5.534;2023-01-19T10:08:38;7.47;;;2.22;;
65045;SDS011;54657;52.022;5.534;2023-01-19T10:13:56;6.40;;;1.52;;
65045;SDS011;54657;52.022;5.534;2023-01-19T10:16:41;7.75;;;1.92;;
65045;SDS011;54657;52.022;5.534;2023-01-19T10:19:26;9.15;;;2.88;;
65045;SDS011;54657;52.022;5.534;2023-01-19T10:24:40;8.50;;;1.73;;
65045;SDS011;54657;52.022;5.534;2023-01-19T10:27:13;3.47;;;1.30;;
65045;SDS011;54657;52.022;5.534;2023-01-19T10:29:44;9.18;;;1.83;;
65045;SDS011;54657;52.022;5.534;2023-01-19T10:32:12;4.28;;;2.00;;
65045;SDS011;54657;52.022;5.534;2023-01-19T10:34:41;6.30;;;2.08;;
65045;SDS011;54657;52.022;5.534;2023-01-19T10:37:20;6.30;;;2.30;;
65045;SDS011;54657;52.022;5.534;2023-01-19T10:42:46;7.65;;;2.08;;
65045;SDS011;54657;52.022;5.534;2023-01-19T10:45:18;7.97;;;2.58;;
65045;SDS011;54657;52.022;5.534;2023-01-19T10:47:47;5.72;;;1.50;;
65045;SDS011;54657;52.022;5.534;2023-01-19T10:50:32;8.35;;;1.83;;
65045;SDS011;54657;52.022;5.534;2023-01-19T10:52:59;7.82;;;2.50;;
65045;SDS011;54657;52.022;5.534;2023-01-19T10:55:31;8.65;;;3.15;;
65045;SDS011;54657;52.022;5.534;2023-01-19T10:57:59;11.60;;;5.28;;
65045;SDS011;54657;52.022;5.534;2023-01-19T11:02:58;11.20;;;3.70;;
65045;SDS011;54657;52.022;5.534;2023-01-19T11:05:25;8.30;;;2.10;;
65045;SDS011;54657;52.022;5.534;2023-01-19T11:07:53;12.23;;;2.33;;
65045;SDS011;54657;52.022;5.534;2023-01-19T11:10:20;8.93;;;2.10;;
65045;SDS011;54657;52.022;5.534;2023-01-19T11:15:55;8.43;;;1.80;;
65045;SDS011;54657;52.022;5.534;2023-01-19T11:18:26;6.18;;;2.15;;
65045;SDS011;54657;52.022;5.534;2023-01-19T11:20:57;10.40;;;2.58;;
65045;SDS011;54657;52.022;5.534;2023-01-19T11:23:36;9.07;;;2.35;;
65045;SDS011;54657;52.022;5.534;2023-01-19T11:28:55;6.32;;;2.90;;
65045;SDS011;54657;52.022;5.534;2023-01-19T11:36:22;11.13;;;3.80;;
65045;SDS011;54657;52.022;5.534;2023-01-19T11:38:50;8.38;;;2.33;;
65045;SDS011;54657;52.022;5.534;2023-01-19T11:41:38;10.30;;;1.90;;
65045;SDS011;54657;52.022;5.534;2023-01-19T11:44:13;6.68;;;1.95;;
65045;SDS011;54657;52.022;5.534;2023-01-19T11:46:43;6.55;;;2.10;;
65045;SDS011;54657;52.022;5.534;2023-01-19T11:49:29;8.05;;;2.03;;
65045;SDS011;54657;52.022;5.534;2023-01-19T11:52:04;7.20;;;1.85;;
65045;SDS011;54657;52.022;5.534;2023-01-19T11:54:34;9.65;;;2.20;;
65045;SDS011;54657;52.022;5.534;2023-01-19T11:59:37;9.73;;;2.25;;
65045;SDS011;54657;52.022;5.534;2023-01-19T12:02:03;7.38;;;2.28;;
65045;SDS011;54657;52.022;5.534;2023-01-19T12:04:44;9.45;;;2.00;;
65045;SDS011;54657;52.022;5.534;2023-01-19T12:07:12;8.80;;;2.28;;
65045;SDS011;54657;52.022;5.534;2023-01-19T12:09:45;11.02;;;2.28;;
65045;SDS011;54657;52.022;5.534;2023-01-19T12:12:28;9.18;;;1.50;;
65045;SDS011;54657;52.022;5.534;2023-01-19T12:17:32;5.68;;;0.73;;
65045;SDS011;54657;52.022;5.534;2023-01-19T12:22:34;4.35;;;1.33;;
65045;SDS011;54657;52.022;5.534;2023-01-19T12:25:11;3.22;;;0.75;;
65045;SDS011;54657;52.022;5.534;2023-01-19T12:27:46;5.00;;;0.90;;
65045;SDS011;54657;52.022;5.534;2023-01-19T12:30:18;2.53;;;0.60;;
65045;SDS011;54657;52.022;5.534;2023-01-19T12:32:46;5.07;;;0.90;;
65045;SDS011;54657;52.022;5.534;2023-01-19T12:38:57;4.97;;;0.93;;
65045;SDS011;54657;52.022;5.534;2023-01-19T12:41:24;1.98;;;0.70;;
65045;SDS011;54657;52.022;5.534;2023-01-19T12:49:33;2.90;;;0.80;;
65045;SDS011;54657;52.022;5.534;2023-01-19T12:54:35;5.63;;;0.82;;
65045;SDS011;54657;52.022;5.534;2023-01-19T12:57:07;4.38;;;0.73;;
65045;SDS011;54657;52.022;5.534;2023-01-19T12:59:56;1.20;;;0.63;;
65045;SDS011;54657;52.022;5.534;2023-01-19T13:13:26;1.38;;;1.10;;
65045;SDS011;54657;52.022;5.534;2023-01-19T13:18:43;4.00;;;1.50;;
65045;SDS011;54657;52.022;5.534;2023-01-19T13:21:09;3.25;;;1.10;;
65045;SDS011;54657;52.022;5.534;2023-01-19T13:26:17;2.90;;;1.30;;
65045;SDS011;54657;52.022;5.534;2023-01-19T13:28:45;1.65;;;0.82;;
65045;SDS011;54657;52.022;5.534;2023-01-19T13:31:14;6.82;;;0.80;;
65045;SDS011;54657;52.022;5.534;2023-01-19T13:36:32;3.70;;;0.80;;
65045;SDS011;54657;52.022;5.534;2023-01-19T13:39:33;2.78;;;0.68;;
65045;SDS011;54657;52.022;5.534;2023-01-19T13:41:54;2.72;;;0.93;;
65045;SDS011;54657;52.022;5.534;2023-01-19T13:44:26;2.97;;;1.02;;
65045;SDS011;54657;52.022;5.534;2023-01-19T13:46:56;4.53;;;0.80;;
65045;SDS011;54657;52.022;5.534;2023-01-19T13:49:34;2.70;;;0.80;;
65045;SDS011;54657;52.022;5.534;2023-01-19T13:52:04;3.50;;;0.77;;
65045;SDS011;54657;52.022;5.534;2023-01-19T13:54:29;2.63;;;0.88;;
65045;SDS011;54657;52.022;5.534;2023-01-19T13:56:55;1.27;;;0.60;;
65045;SDS011;54657;52.022;5.534;2023-01-19T13:59:20;1.90;;;0.70;;
65045;SDS011;54657;52.022;5.534;2023-01-19T14:01:46;9.65;;;5.00;;
65045;SDS011;54657;52.022;5.534;2023-01-19T14:04:29;9.45;;;4.70;;
65045;SDS011;54657;52.022;5.534;2023-01-19T14:06:57;2.00;;;1.80;;
65045;SDS011;54657;52.022;5.534;2023-01-19T14:09:45;4.07;;;1.42;;
65045;SDS011;54657;52.022;5.534;2023-01-19T14:12:11;5.30;;;1.48;;
65045;SDS011;54657;52.022;5.534;2023-01-19T14:14:39;2.90;;;0.93;;
65045;SDS011;54657;52.022;5.534;2023-01-19T14:17:20;2.67;;;0.40;;
65045;SDS011;54657;52.022;5.534;2023-01-19T14:19:52;2.28;;;0.65;;
65045;SDS011;54657;52.022;5.534;2023-01-19T14:22:19;5.20;;;0.73;;
65045;SDS011;54657;52.022;5.534;2023-01-19T14:24:45;3.90;;;0.63;;
65045;SDS011;54657;52.022;5.534;2023-01-19T14:27:22;1.90;;;0.55;;
65045;SDS011;54657;52.022;5.534;2023-01-19T14:29:49;2.42;;;0.80;;
65045;SDS011;54657;52.022;5.534;2023-01-19T14:34:45;2.10;;;0.57;;
65045;SDS011;54657;52.022;5.534;2023-01-19T14:37:27;4.40;;;0.70;;
65045;SDS011;54657;52.022;5.534;2023-01-19T14:42:36;2.63;;;0.75;;
65045;SDS011;54657;52.022;5.534;2023-01-19T14:45:23;2.53;;;0.65;;
65045;SDS011;54657;52.022;5.534;2023-01-19T14:48:02;4.63;;;0.70;;
65045;SDS011;54657;52.022;5.534;2023-01-19T14:50:39;3.80;;;0.90;;
65045;SDS011;54657;52.022;5.534;2023-01-19T14:53:16;4.70;;;0.70;;
65045;SDS011;54657;52.022;5.534;2023-01-19T14:55:46;2.70;;;0.60;;
65045;SDS011;54657;52.022;5.534;2023-01-19T14:58:13;4.50;;;1.17;;
65045;SDS011;54657;52.022;5.534;2023-01-19T15:00:40;3.88;;;1.05;;
65045;SDS011;54657;52.022;5.534;2023-01-19T15:03:07;1.77;;;0.55;;
65045;SDS011;54657;52.022;5.534;2023-01-19T15:05:34;2.05;;;0.80;;
65045;SDS011;54657;52.022;5.534;2023-01-19T15:08:01;3.22;;;1.50;;
65045;SDS011;54657;52.022;5.534;2023-01-19T15:10:28;3.83;;;1.30;;
65045;SDS011;54657;52.022;5.534;2023-01-19T15:12:55;2.88;;;0.80;;
65045;SDS011;54657;52.022;5.534;2023-01-19T15:15:31;3.90;;;0.60;;
65045;SDS011;54657;52.022;5.534;2023-01-19T15:17:58;2.58;;;1.02;;
65045;SDS011;54657;52.022;5.534;2023-01-19T15:20:26;4.07;;;1.45;;
65045;SDS011;54657;52.022;5.534;2023-01-19T15:22:52;4.85;;;1.50;;
65045;SDS011;54657;52.022;5.534;2023-01-19T15:25:18;3.53;;;1.58;;
65045;SDS011;54657;52.022;5.534;2023-01-19T15:27:46;2.83;;;1.30;;
65045;SDS011;54657;52.022;5.534;2023-01-19T15:30:16;6.22;;;1.10;;
65045;SDS011;54657;52.022;5.534;2023-01-19T15:32:54;3.43;;;1.70;;
65045;SDS011;54657;52.022;5.534;2023-01-19T15:35:20;20.70;;;6.63;;
65045;SDS011;54657;52.022;5.534;2023-01-19T15:37:47;8.02;;;3.00;;
65045;SDS011;54657;52.022;5.534;2023-01-19T15:40:15;4.75;;;1.90;;
65045;SDS011;54657;52.022;5.534;2023-01-19T15:42:41;4.00;;;1.63;;
65045;SDS011;54657;52.022;5.534;2023-01-19T15:48:15;2.00;;;1.13;;
65045;SDS011;54657;52.022;5.534;2023-01-19T15:50:41;4.50;;;2.45;;
65045;SDS011;54657;52.022;5.534;2023-01-19T15:53:11;7.35;;;3.70;;
65045;SDS011;54657;52.022;5.534;2023-01-19T15:55:49;5.47;;;4.68;;
65045;SDS011;54657;52.022;5.534;2023-01-19T15:58:16;5.63;;;3.30;;
65045;SDS011;54657;52.022;5.534;2023-01-19T16:00:44;10.90;;;3.67;;
65045;SDS011;54657;52.022;5.534;2023-01-19T16:03:16;26.43;;;6.33;;
65045;SDS011;54657;52.022;5.534;2023-01-19T16:05:41;14.00;;;4.97;;
65045;SDS011;54657;52.022;5.534;2023-01-19T16:08:07;5.60;;;3.35;;
65045;SDS011;54657;52.022;5.534;2023-01-19T16:10:33;4.15;;;2.78;;
65045;SDS011;54657;52.022;5.534;2023-01-19T16:12:59;10.35;;;3.63;;
65045;SDS011;54657;52.022;5.534;2023-01-19T16:15:24;3.42;;;1.75;;
65045;SDS011;54657;52.022;5.534;2023-01-19T16:17:51;3.78;;;1.40;;
65045;SDS011;54657;52.022;5.534;2023-01-19T16:20:16;3.95;;;1.70;;
65045;SDS011;54657;52.022;5.534;2023-01-19T16:22:42;4.13;;;2.65;;
65045;SDS011;54657;52.022;5.534;2023-01-19T16:25:08;6.40;;;4.30;;
65045;SDS011;54657;52.022;5.534;2023-01-19T16:27:34;5.78;;;3.72;;